Time;durP1;ratioP1;P1;durP2;ratioP2;P2;SDS_P1;SDS_P2;PMS_P1;PMS_P2;Temp;Humidity;BMP_temperature;BMP_pressure;BME280_temperature;BME280_humidity;BME280_pressure;Samples;Min_cycle;Max_cycle;Signal;HPM_P1;HPM_P2
2021/09/23 07:38:40;;;;;;;1.50;1.40;;;;;;;19.32;53.58;98905.97;5071056;28;20550;-59
2021/09/23 07:41:07;;;;;;;2.50;1.33;;;;;;;19.91;52.10;98898.19;5070281;28;20192;-58
2021/09/23 07:43:33;;;;;;;1.33;1.23;;;;;;;20.24;51.49;98902.81;5068778;28;20196;-58
2021/09/23 07:46:00;;;;;;;1.60;1.50;;;;;;;20.45;51.31;98891.75;5068618;28;20297;-58
2021/09/23 07:48:28;;;;;;;1.50;1.40;;;;;;;20.56;50.83;98887.97;5068680;28;20702;-57
2021/09/23 07:50:57;;;;;;;2.27;1.53;;;;;;;20.66;50.84;98888.63;5068709;28;20283;-58
2021/09/23 07:53:25;;;;;;;2.27;1.50;;;;;;;20.76;50.43;98890.28;5068574;28;20189;-57
2021/09/23 07:55:52;;;;;;;1.90;1.57;;;;;;;20.81;50.57;98880.03;5068519;28;20218;-57
2021/09/23 07:58:19;;;;;;;1.70;1.60;;;;;;;20.92;50.68;98881.56;5069939;28;20210;-58
2021/09/23 08:00:46;;;;;;;1.90;1.80;;;;;;;21.05;50.11;98881.03;5068587;28;20206;-58
2021/09/23 08:03:13;;;;;;;1.70;1.20;;;;;;;21.10;50.23;98884.00;5069875;28;20577;-58
2021/09/23 08:05:43;;;;;;;3.70;1.60;;;;;;;21.20;50.09;98882.03;5068366;28;20217;-57
2021/09/23 08:08:10;;;;;;;1.60;1.50;;;;;;;21.24;49.71;98880.69;5068490;28;20196;-58
2021/09/23 08:10:37;;;;;;;1.83;1.73;;;;;;;21.28;49.16;98879.34;5068389;28;20192;-58
2021/09/23 08:13:05;;;;;;;1.70;1.60;;;;;;;21.31;49.12;98877.34;5068419;28;20740;-58
2021/09/23 08:15:33;;;;;;;1.80;1.60;;;;;;;21.38;49.20;98871.19;5068263;28;20218;-58
2021/09/23 08:18:20;;;;;;;1.70;1.60;;;;;;;21.40;49.14;98869.22;5068831;28;20265;-58
2021/09/23 08:21:01;;;;;;;1.60;1.50;;;;;;;21.44;49.23;98863.56;5068318;28;20210;-59
2021/09/23 08:23:27;;;;;;;1.57;1.47;;;;;;;21.51;48.46;98864.53;5068220;28;20297;-59
2021/09/23 08:26:04;;;;;;;1.57;1.47;;;;;;;21.49;48.81;98859.41;5068088;28;20214;-59
2021/09/23 08:28:32;;;;;;;1.80;1.70;;;;;;;21.49;48.60;98851.44;5068011;28;20611;-59
2021/09/23 08:30:59;;;;;;;1.80;1.70;;;;;;;21.58;48.82;98843.41;5068095;28;20193;-59
2021/09/23 08:33:25;;;;;;;1.53;1.43;;;;;;;21.60;48.86;98841.41;5067923;28;20189;-59
2021/09/23 08:35:54;;;;;;;1.70;1.60;;;;;;;21.61;49.03;98846.56;5067886;28;20222;-59
2021/09/23 08:38:20;;;;;;;1.60;1.50;;;;;;;21.66;49.36;98843.44;5067686;28;20216;-59
2021/09/23 08:40:50;;;;;;;2.03;1.67;;;;;;;21.68;49.19;98838.78;5067780;28;20210;-59
2021/09/23 08:43:18;;;;;;;1.70;1.60;;;;;;;21.71;49.22;98827.81;5067750;28;20269;-59
2021/09/23 08:45:46;;;;;;;2.57;1.70;;;;;;;21.72;49.42;98833.97;5067677;28;20720;-59
2021/09/23 08:48:15;;;;;;;1.63;1.50;;;;;;;21.72;48.68;98829.44;5066187;28;20244;-59
2021/09/23 08:50:42;;;;;;;1.97;1.67;;;;;;;21.78;48.61;98827.94;5055276;28;20204;-59
2021/09/23 08:53:28;;;;;;;1.53;1.43;;;;;;;21.76;48.23;98835.25;5054726;28;20689;-59
2021/09/23 08:55:56;;;;;;;1.60;1.50;;;;;;;21.73;48.06;98828.44;5054343;28;20222;-59
2021/09/23 08:58:24;;;;;;;1.40;1.30;;;;;;;21.75;47.89;98818.47;5054369;28;20209;-59
2021/09/23 09:01:10;;;;;;;1.47;1.37;;;;;;;21.78;47.61;98825.28;5054273;28;20200;-59
2021/09/23 09:04:04;;;;;;;1.70;1.60;;;;;;;21.81;47.48;98828.44;5055191;28;20225;-60
2021/09/23 09:07:01;;;;;;;1.60;1.50;;;;;;;21.82;47.29;98831.91;5054157;28;20181;-59
2021/09/23 09:09:48;;;;;;;1.60;1.50;;;;;;;21.87;47.32;98831.38;5055162;28;20597;-59
2021/09/23 09:12:16;;;;;;;1.40;1.30;;;;;;;21.88;47.19;98835.69;5037576;28;20197;-58
2021/09/23 09:14:47;;;;;;;2.03;1.40;;;;;;;21.94;47.10;98837.63;5053964;28;20220;-59
2021/09/23 09:17:18;;;;;;;1.23;1.17;;;;;;;21.94;47.22;98829.66;5044896;22;20236;-84
2021/09/23 09:19:57;;;;;;;1.40;1.30;;;;;;;21.95;46.86;98828.66;5022183;28;20212;-85
2021/09/23 09:22:27;;;;;;;1.70;1.60;;;;;;;21.96;47.03;98825.84;5038463;28;20288;-86
2021/09/23 09:25:09;;;;;;;1.60;1.50;;;;;;;21.97;46.93;98829.34;5039752;28;20263;-84
2021/09/23 09:27:52;;;;;;;1.93;1.53;;;;;;;21.98;47.22;98823.84;5020440;28;20241;-84
2021/09/23 09:30:22;;;;;;;1.43;1.30;;;;;;;21.95;46.88;98823.34;5011092;28;20226;-84
2021/09/23 09:32:57;;;;;;;1.40;1.30;;;;;;;21.98;46.79;98817.72;5036595;28;20194;-84
2021/09/23 09:35:31;;;;;;;2.23;1.63;;;;;;;22.00;46.70;98807.72;5035551;28;20190;-83
2021/09/23 09:40:37;;;;;;;1.63;1.50;;;;;;;22.10;46.69;98810.97;5069735;28;20559;-59
2021/09/23 09:43:07;;;;;;;2.70;1.57;;;;;;;22.16;46.80;98808.63;5070187;28;20623;-61
2021/09/23 09:45:36;;;;;;;1.90;1.77;;;;;;;22.21;46.46;98812.41;5085937;28;20257;-60
2021/09/23 09:48:04;;;;;;;3.80;2.00;;;;;;;22.21;46.71;98811.59;5068910;28;20247;-61
2021/09/23 09:50:37;;;;;;;1.87;1.60;;;;;;;22.20;46.63;98809.94;5069008;28;20194;-60
2021/09/23 09:53:07;;;;;;;3.23;2.17;;;;;;;22.12;46.79;98802.84;5069520;28;20185;-60
2021/09/23 09:55:43;;;;;;;2.67;2.20;;;;;;;22.10;46.79;98802.19;5068826;28;20202;-61
2021/09/23 09:58:13;;;;;;;3.83;2.30;;;;;;;22.10;46.71;98796.88;5068726;28;20240;-62
2021/09/23 10:00:41;;;;;;;2.67;2.47;;;;;;;22.15;46.87;98796.34;5068803;28;20206;-61
2021/09/23 10:03:09;;;;;;;4.70;2.47;;;;;;;22.14;46.84;98797.34;5069937;28;20192;-61
2021/09/23 10:05:39;;;;;;;3.30;2.00;;;;;;;22.19;47.06;98797.66;5069298;28;20655;-61
2021/09/23 10:08:07;;;;;;;2.03;1.80;;;;;;;22.18;46.59;98798.66;5068557;28;20698;-62
2021/09/23 10:10:34;;;;;;;4.40;2.67;;;;;;;22.15;46.70;98788.38;5068839;28;20280;-61
2021/09/23 10:13:04;;;;;;;8.33;4.70;;;;;;;22.13;46.41;98791.19;5068513;28;20189;-61
2021/09/23 10:15:31;;;;;;;6.10;2.80;;;;;;;22.11;46.29;98783.41;5068330;28;20192;-62
2021/09/23 10:18:03;;;;;;;7.40;4.73;;;;;;;22.10;46.19;98779.06;5068528;28;20632;-57
2021/09/23 10:20:34;;;;;;;13.87;8.13;;;;;;;22.07;46.44;98782.09;5068570;28;20218;-58
2021/09/23 10:23:02;;;;;;;12.63;7.17;;;;;;;22.08;46.61;98780.28;5068316;28;20200;-58
2021/09/23 10:25:32;;;;;;;11.27;7.03;;;;;;;22.09;46.58;98782.75;5068313;28;20288;-59
2021/09/23 10:28:04;;;;;;;9.73;6.33;;;;;;;22.10;46.73;98779.06;5068441;28;20220;-60
2021/09/23 10:30:42;;;;;;;8.90;5.53;;;;;;;22.16;46.83;98774.06;5068914;28;20184;-61
2021/09/23 10:33:12;;;;;;;10.53;6.87;;;;;;;22.21;47.15;98763.72;5068336;28;20185;-60
2021/09/23 10:35:39;;;;;;;10.03;6.63;;;;;;;22.20;47.33;98762.91;5068204;28;20205;-60
2021/09/23 10:38:40;;;;;;;10.97;6.20;;;;;;;22.22;47.12;98765.38;5062523;28;20282;-60
2021/09/23 10:41:07;;;;;;;10.33;5.70;;;;;;;22.23;47.10;98764.38;5068309;28;20633;-60
2021/09/23 10:43:36;;;;;;;7.63;5.50;;;;;;;22.26;46.91;98766.66;5068833;28;20215;-60
2021/09/23 10:46:04;;;;;;;6.03;5.00;;;;;;;22.25;46.78;98754.38;5069336;28;20240;-60
2021/09/23 10:48:46;;;;;;;7.23;4.90;;;;;;;22.31;46.71;98753.69;5067681;28;20216;-61
2021/09/23 10:51:15;;;;;;;6.23;4.93;;;;;;;22.30;46.39;98740.56;5041982;28;20208;-60
2021/09/23 10:53:55;;;;;;;6.53;4.53;;;;;;;22.33;46.31;98740.22;5055385;28;20220;-60
2021/09/23 10:56:23;;;;;;;6.40;4.57;;;;;;;22.36;46.76;98740.69;5054798;28;20195;-60
2021/09/23 10:58:54;;;;;;;5.53;4.73;;;;;;;22.40;46.35;98735.84;5054405;28;20303;-60
2021/09/23 11:01:28;;;;;;;4.50;4.10;;;;;;;22.40;46.46;98741.97;5054372;28;20200;-60
2021/09/23 11:03:58;;;;;;;5.97;4.07;;;;;;;22.36;46.58;98735.38;5055198;28;20196;-60
2021/09/23 11:06:35;;;;;;;6.17;4.00;;;;;;;22.31;46.56;98731.59;5054812;28;20536;-60
2021/09/23 11:09:17;;;;;;;5.60;4.40;;;;;;;22.32;46.40;98731.41;5054087;28;20227;-60
2021/09/23 11:11:54;;;;;;;6.90;3.80;;;;;;;22.27;46.22;98723.13;5053937;28;20193;-61
2021/09/23 11:14:21;;;;;;;4.07;3.63;;;;;;;22.21;46.46;98715.88;5053970;28;20182;-59
2021/09/23 11:16:50;;;;;;;5.60;3.63;;;;;;;22.16;46.29;98718.25;5053992;28;20655;-59
2021/09/23 11:19:19;;;;;;;4.03;3.43;;;;;;;22.16;46.35;98728.91;5053842;28;20227;-58
2021/09/23 11:21:48;;;;;;;5.33;3.90;;;;;;;22.19;46.04;98723.22;5053867;28;20207;-59
2021/09/23 11:24:15;;;;;;;4.40;3.73;;;;;;;22.20;46.17;98716.91;5054222;28;20196;-59
2021/09/23 11:26:43;;;;;;;4.73;4.00;;;;;;;22.19;46.27;98712.59;5053776;28;20200;-60
2021/09/23 11:29:12;;;;;;;3.20;2.87;;;;;;;22.20;46.20;98706.25;5053661;28;20209;-60
2021/09/23 11:31:50;;;;;;;4.30;3.80;;;;;;;22.21;46.06;98705.25;5053580;28;20194;-60
2021/09/23 11:34:37;;;;;;;3.87;3.27;;;;;;;22.18;46.29;98698.44;5037144;28;20190;-61
2021/09/23 11:37:09;;;;;;;4.53;3.43;;;;;;;22.18;45.69;98689.66;5053577;28;20189;-59
2021/09/23 11:39:48;;;;;;;4.97;3.60;;;;;;;22.19;45.61;98688.66;5053370;28;20224;-59
2021/09/23 11:42:20;;;;;;;4.87;3.63;;;;;;;22.19;45.75;98688.66;5053475;28;20197;-60
2021/09/23 11:44:50;;;;;;;3.57;3.27;;;;;;;22.20;45.46;98682.34;5054061;28;20271;-60
2021/09/23 11:47:23;;;;;;;4.37;3.63;;;;;;;22.22;45.42;98680.31;5053341;28;20187;-60
2021/09/23 11:49:54;;;;;;;4.50;3.50;;;;;;;22.23;45.24;98682.81;5053418;28;20189;-61
2021/09/23 11:52:37;;;;;;;4.47;3.27;;;;;;;22.34;45.25;98686.88;5053359;28;20209;-60
2021/09/23 11:55:05;;;;;;;5.63;3.87;;;;;;;22.37;45.66;98681.19;5053343;28;20195;-60
2021/09/23 11:57:32;;;;;;;4.57;3.57;;;;;;;22.43;45.79;98673.47;5054478;28;20593;-60
2021/09/23 12:00:01;;;;;;;3.70;3.30;;;;;;;22.48;45.90;98671.16;5053132;28;20219;-60
2021/09/23 12:02:32;;;;;;;4.80;3.70;;;;;;;22.53;45.85;98671.41;5053422;28;20191;-61
2021/09/23 12:05:00;;;;;;;4.60;3.80;;;;;;;22.51;45.77;98670.78;5053103;28;20190;-61
2021/09/23 12:07:41;;;;;;;5.97;3.33;;;;;;;22.52;45.77;98672.44;5052718;28;20284;-60
2021/09/23 12:10:14;;;;;;;4.13;3.47;;;;;;;22.51;45.92;98668.13;5052859;28;20193;-61
2021/09/23 12:12:55;;;;;;;4.10;3.33;;;;;;;22.46;46.15;98670.47;5053257;28;20207;-60
2021/09/23 12:15:22;;;;;;;4.10;3.33;;;;;;;22.45;45.97;98672.28;5052940;28;20188;-61
2021/09/23 12:18:00;;;;;;;4.20;3.00;;;;;;;22.43;46.10;98670.81;5052742;28;20267;-60
2021/09/23 12:20:51;;;;;;;4.40;3.50;;;;;;;22.43;45.73;98665.50;5052772;28;20217;-60
2021/09/23 12:23:29;;;;;;;3.40;3.10;;;;;;;22.48;45.65;98663.97;5053499;28;20193;-61
2021/09/23 12:26:10;;;;;;;4.33;3.30;;;;;;;22.49;45.74;98651.53;5052965;28;20193;-60
2021/09/23 12:28:59;;;;;;;7.03;3.47;;;;;;;22.50;45.69;98640.69;5052729;28;20312;-60
2021/09/23 12:31:48;;;;;;;2.90;2.70;;;;;;;22.41;45.73;98639.91;5045947;28;20193;-61
2021/09/23 12:34:21;;;;;;;4.10;3.23;;;;;;;22.44;45.79;98640.59;5047011;28;20193;-60
2021/09/23 12:37:00;;;;;;;3.73;3.33;;;;;;;22.39;45.60;98633.16;5052436;28;20193;-60
2021/09/23 12:39:44;;;;;;;3.93;3.33;;;;;;;22.37;45.68;98633.31;5052150;28;20217;-60
2021/09/23 12:42:19;;;;;;;3.50;3.20;;;;;;;;;;5052436;28;20283;-60
2021/09/23 12:45:00;;;;;;;3.73;2.93;;;;;;;22.31;45.40;98619.94;5052230;28;20232;-60
2021/09/23 12:47:30;;;;;;;3.33;3.03;;;;;;;22.22;45.70;98622.69;5052335;28;20220;-61
2021/09/23 12:50:05;;;;;;;5.30;3.30;;;;;;;22.20;45.50;98630.03;5053027;28;20279;-60
2021/09/23 12:52:32;;;;;;;3.33;3.03;;;;;;;22.18;45.66;98626.69;5052242;28;20194;-60
2021/09/23 12:54:58;;;;;;;3.70;2.97;;;;;;;22.18;45.49;98623.22;5052124;28;20627;-61
2021/09/23 12:57:47;;;;;;;4.10;3.10;;;;;;;22.21;45.39;98626.34;5052103;28;20227;-60
2021/09/23 13:00:21;;;;;;;4.53;3.10;;;;;;;22.17;45.39;98622.38;5052502;28;20211;-60
2021/09/23 13:03:01;;;;;;;3.23;2.93;;;;;;;22.15;45.41;98620.94;5052577;28;20185;-60
2021/09/23 13:05:29;;;;;;;3.53;3.23;;;;;;;22.14;45.73;98613.97;5051967;28;20221;-60
2021/09/23 13:07:57;;;;;;;3.63;3.33;;;;;;;22.19;45.40;98601.75;5053139;28;20207;-60
2021/09/23 13:10:32;;;;;;;6.93;2.90;;;;;;;22.29;45.06;98608.66;5051859;28;20200;-60
2021/09/23 13:13:02;;;;;;;3.77;3.10;;;;;;;22.29;45.14;98603.34;5053252;28;20239;-61
2021/09/23 13:15:40;;;;;;;5.87;3.23;;;;;;;22.26;45.30;98596.53;5051850;28;20247;-60
2021/09/23 13:18:16;;;;;;;4.23;3.20;;;;;;;22.29;45.37;98598.88;5052002;28;20218;-60
2021/09/23 13:21:04;;;;;;;5.60;3.33;;;;;;;22.32;45.08;98598.50;5051708;28;20237;-60
2021/09/23 13:23:43;;;;;;;4.10;3.70;;;;;;;22.36;44.95;98593.63;5052228;28;20190;-60
2021/09/23 13:26:14;;;;;;;3.30;3.00;;;;;;;22.32;45.06;98590.50;5052309;28;20234;-60
2021/09/23 13:28:47;;;;;;;4.10;3.17;;;;;;;;;;5051694;28;20220;-60
2021/09/23 13:31:23;;;;;;;3.97;3.33;;;;;;;22.38;44.86;98581.78;5051731;28;20682;-60
2021/09/23 13:33:53;;;;;;;3.37;3.07;;;;;;;22.45;44.74;98573.91;5051791;28;20265;-60
2021/09/23 13:36:20;;;;;;;4.13;3.70;;;;;;;22.52;44.55;98569.56;5035109;28;20234;-59
2021/09/23 13:38:46;;;;;;;4.23;3.03;;;;;;;22.56;44.55;98574.50;5051317;28;20286;-60
2021/09/23 13:41:25;;;;;;;3.77;2.80;;;;;;;22.60;44.37;98544.69;5052370;28;20209;-60
2021/09/23 13:43:53;;;;;;;3.03;2.80;;;;;;;22.61;44.34;98546.34;5051523;28;20235;-59
2021/09/23 13:46:27;;;;;;;4.23;3.47;;;;;;;22.65;44.32;98536.13;5051534;28;20650;-60
2021/09/23 13:48:54;;;;;;;3.17;2.93;;;;;;;22.69;44.19;98532.91;5051324;28;20222;-60
2021/09/23 13:51:22;;;;;;;3.47;3.17;;;;;;;22.71;44.23;98529.25;5051397;28;20209;-59
2021/09/23 13:53:49;;;;;;;3.83;3.43;;;;;;;22.67;44.33;98529.63;5052104;28;20197;-60
2021/09/23 13:56:16;;;;;;;4.17;3.20;;;;;;;22.64;44.33;98527.34;5051355;28;20200;-59
2021/09/23 13:58:43;;;;;;;3.73;3.43;;;;;;;22.63;44.26;98530.19;5051211;28;20633;-59
2021/09/23 14:01:12;;;;;;;4.27;3.30;;;;;;;22.63;44.47;98528.34;5051190;28;20235;-59
2021/09/23 14:03:39;;;;;;;3.90;3.60;;;;;;;22.64;44.33;98530.00;5052603;28;20679;-58
2021/09/23 14:06:09;;;;;;;3.10;2.90;;;;;;;22.69;44.17;98529.44;5051236;28;20652;-63
2021/09/23 14:08:37;;;;;;;4.03;3.10;;;;;;;22.69;44.35;98516.97;5051041;28;20271;-59
2021/09/23 14:11:17;;;;;;;3.80;3.33;;;;;;;22.67;44.38;98513.66;5051376;28;20533;-63
2021/09/23 14:14:04;;;;;;;5.47;3.70;;;;;;;22.68;44.56;98517.16;5050952;28;20197;-61
2021/09/23 14:16:31;;;;;;;4.43;3.70;;;;;;;22.65;44.44;98513.03;5051090;28;20254;-64
2021/09/23 14:18:58;;;;;;;4.90;3.33;;;;;;;22.64;44.58;98524.69;5050993;28;20259;-61
2021/09/23 14:21:24;;;;;;;6.23;3.40;;;;;;;22.66;44.61;98517.34;5050950;28;20228;-61
2021/09/23 14:23:51;;;;;;;5.60;3.50;;;;;;;22.70;44.26;98520.47;5051236;28;20567;-59
2021/09/23 14:26:27;;;;;;;4.93;3.80;;;;;;;22.69;44.48;98524.94;5053344;28;20185;-58
2021/09/23 14:29:01;;;;;;;5.27;3.43;;;;;;;22.72;44.40;98525.56;5054837;28;20281;-58
2021/09/23 14:31:34;;;;;;;3.83;3.20;;;;;;;22.72;44.29;98520.25;5054874;28;20251;-59
2021/09/23 14:34:02;;;;;;;5.50;3.60;;;;;;;22.74;44.38;98520.88;5054800;28;20255;-58
2021/09/23 14:36:30;;;;;;;5.87;3.40;;;;;;;22.73;44.39;98517.41;5056138;28;20205;-59
2021/09/23 14:38:57;;;;;;;4.83;3.10;;;;;;;22.74;44.48;98516.41;5054596;28;20229;-60
2021/09/23 14:41:23;;;;;;;4.00;3.43;;;;;;;22.75;44.06;98517.22;5055758;28;20205;-59
2021/09/23 14:43:50;;;;;;;3.93;3.10;;;;;;;22.74;44.22;98507.59;5055907;28;20192;-59
2021/09/23 14:46:17;;;;;;;4.07;3.13;;;;;;;22.73;44.45;98513.91;5055856;28;20189;-58
2021/09/23 14:48:44;;;;;;;6.80;3.40;;;;;;;22.74;44.21;98513.75;5055894;28;20571;-58
2021/09/23 14:51:10;;;;;;;4.17;3.33;;;;;;;22.73;44.29;98514.75;5055706;28;20678;-58
2021/09/23 14:53:37;;;;;;;5.17;3.40;;;;;;;22.72;44.38;98520.25;5054525;28;20273;-60
2021/09/23 14:56:04;;;;;;;4.07;3.10;;;;;;;22.73;44.18;98522.75;5054349;28;20225;-60
2021/09/23 14:58:31;;;;;;;5.50;3.50;;;;;;;22.78;44.15;98519.53;5055616;28;20248;-61
2021/09/23 15:00:57;;;;;;;4.17;3.33;;;;;;;22.78;44.04;98520.34;5055539;28;20695;-59
2021/09/23 15:03:27;;;;;;;3.63;3.33;;;;;;;22.80;44.12;98522.81;5055513;28;20198;-60
2021/09/23 15:05:54;;;;;;;3.73;3.00;;;;;;;22.80;44.00;98522.81;5055650;28;20714;-59
2021/09/23 15:08:21;;;;;;;3.57;3.00;;;;;;;22.78;44.21;98519.53;5055322;28;20213;-61
2021/09/23 15:10:47;;;;;;;3.30;2.93;;;;;;;22.78;44.29;98514.19;5055405;28;20186;-61
2021/09/23 15:13:14;;;;;;;4.07;3.03;;;;;;;22.79;44.43;98513.19;5055348;28;20652;-61
2021/09/23 15:15:40;;;;;;;3.23;2.93;;;;;;;22.77;44.55;98512.56;5055388;28;20200;-62
2021/09/23 15:18:07;;;;;;;3.27;2.97;;;;;;;22.74;44.53;98504.94;5055364;28;20820;-61
2021/09/23 15:20:34;;;;;;;3.90;3.40;;;;;;;22.73;44.55;98511.25;5055244;28;20231;-61
2021/09/23 15:23:01;;;;;;;3.20;2.90;;;;;;;22.73;44.45;98506.78;5055188;28;20188;-61
2021/09/23 15:25:28;;;;;;;4.40;2.93;;;;;;;22.75;44.53;98506.56;5055123;28;20268;-61
2021/09/23 15:27:59;;;;;;;4.17;3.10;;;;;;;22.73;44.43;98503.28;5055278;28;20201;-61
2021/09/23 15:30:26;;;;;;;3.70;3.30;;;;;;;22.74;44.59;98488.97;5055112;28;20216;-61
2021/09/23 15:32:54;;;;;;;3.30;2.73;;;;;;;22.67;44.56;98479.09;5054988;28;20185;-60
2021/09/23 15:35:22;;;;;;;4.00;3.30;;;;;;;22.67;44.46;98484.41;5054887;28;20190;-61
2021/09/23 15:37:56;;;;;;;3.30;3.00;;;;;;;22.66;44.43;98482.75;5054710;28;20236;-61
2021/09/23 15:40:27;;;;;;;3.10;2.90;;;;;;;22.65;44.78;98494.41;5054685;28;20757;-60
2021/09/23 15:42:55;;;;;;;3.43;3.00;;;;;;;22.66;44.69;98488.09;5054843;28;20629;-60
2021/09/23 15:45:22;;;;;;;4.40;2.80;;;;;;;22.63;44.65;98491.13;5054587;28;20190;-60
2021/09/23 15:47:49;;;;;;;4.73;2.87;;;;;;;22.65;44.41;98477.63;5053223;28;20221;-60
2021/09/23 15:50:17;;;;;;;3.53;3.00;;;;;;;22.61;44.84;98474.53;5054861;28;20196;-60
2021/09/23 15:52:47;;;;;;;3.10;2.80;;;;;;;22.58;44.79;98482.84;5054600;28;20186;-59
2021/09/23 15:55:14;;;;;;;3.30;3.00;;;;;;;22.53;45.19;98475.47;5054641;28;20648;-60
2021/09/23 15:57:42;;;;;;;3.93;3.00;;;;;;;22.53;45.23;98475.47;5054727;28;20645;-58
2021/09/23 16:00:12;;;;;;;4.03;2.97;;;;;;;22.54;44.85;98470.97;5054211;28;20255;-60
2021/09/23 16:02:40;;;;;;;3.23;2.90;;;;;;;22.47;44.89;98464.72;5054720;28;20201;-57
2021/09/23 16:05:10;;;;;;;8.57;2.70;;;;;;;22.40;45.16;98468.09;5053051;28;20247;-60
2021/09/23 16:07:37;;;;;;;4.17;2.80;;;;;;;22.45;44.88;98466.75;5054249;28;20675;-59
2021/09/23 16:10:06;;;;;;;2.83;2.63;;;;;;;22.38;45.09;98474.63;5054184;28;20190;-61
2021/09/23 16:12:32;;;;;;;5.40;2.80;;;;;;;22.38;45.10;98475.44;5054392;28;20189;-61
2021/09/23 16:14:59;;;;;;;4.30;3.00;;;;;;;22.39;45.18;98482.41;5054024;28;20683;-59
2021/09/23 16:17:25;;;;;;;5.10;3.17;;;;;;;22.34;45.20;98479.50;5053931;28;20727;-59
2021/09/23 16:19:52;;;;;;;3.70;3.07;;;;;;;22.36;45.19;98479.31;5053912;28;20276;-57
2021/09/23 16:22:18;;;;;;;3.20;2.77;;;;;;;;;;5052630;28;20219;-59
2021/09/23 16:24:46;;;;;;;3.10;2.77;;;;;;;;;;5052662;28;20732;-61
2021/09/23 16:27:13;;;;;;;3.37;2.80;;;;;;;22.37;45.36;98479.13;5053741;28;20759;-59
2021/09/23 16:29:40;;;;;;;3.00;2.63;;;;;;;22.33;45.38;98469.88;5054366;28;20195;-59
2021/09/23 16:32:08;;;;;;;3.23;2.90;;;;;;;22.31;45.40;98471.91;5053784;28;20231;-59
2021/09/23 16:34:35;;;;;;;3.17;2.80;;;;;;;22.33;45.45;98475.19;5053750;28;20190;-59
2021/09/23 16:37:02;;;;;;;4.43;2.30;;;;;;;22.33;45.79;98475.19;5053715;28;20197;-59
2021/09/23 16:39:29;;;;;;;3.70;2.90;;;;;;;22.36;45.70;98472.16;5053800;28;20592;-59
2021/09/23 16:41:55;;;;;;;4.30;2.93;;;;;;;22.40;45.55;98470.75;5053779;28;20205;-59
2021/09/23 16:44:22;;;;;;;2.90;2.63;;;;;;;22.40;45.70;98462.78;5053770;28;20269;-59
2021/09/23 16:46:49;;;;;;;3.73;2.53;;;;;;;22.39;45.38;98469.13;5053460;28;20194;-59
2021/09/23 16:49:15;;;;;;;4.13;3.00;;;;;;;22.38;45.50;98472.78;5052764;28;20296;-59
2021/09/23 16:51:42;;;;;;;3.60;2.57;;;;;;;22.41;45.54;98472.41;5053309;28;20188;-59
2021/09/23 16:54:10;;;;;;;2.70;2.50;;;;;;;22.38;45.62;98475.44;5053468;28;20211;-59
2021/09/23 16:56:41;;;;;;;3.50;3.20;;;;;;;22.36;45.69;98474.81;5053339;28;20182;-55
2021/09/23 16:59:07;;;;;;;2.93;2.40;;;;;;;22.32;45.61;98478.03;5053264;28;20209;-59
2021/09/23 17:01:34;;;;;;;2.90;2.60;;;;;;;22.34;45.65;98471.50;5053102;28;20235;-59
2021/09/23 17:04:01;;;;;;;3.60;2.63;;;;;;;;;;5053352;28;20543;-58
2021/09/23 17:06:29;;;;;;;3.60;2.70;;;;;;;22.32;45.60;98470.88;5053121;28;20627;-59
2021/09/23 17:09:00;;;;;;;3.73;2.80;;;;;;;22.36;45.61;98479.31;5051850;28;20343;-59
2021/09/23 17:11:27;;;;;;;2.93;2.73;;;;;;;22.40;45.58;98478.75;5052918;28;20189;-59
2021/09/23 17:13:54;;;;;;;3.10;2.60;;;;;;;22.43;45.50;98479.38;5053578;28;20192;-58
2021/09/23 17:16:21;;;;;;;4.00;3.00;;;;;;;22.45;45.62;98485.34;5052880;28;20190;-59
2021/09/23 17:18:48;;;;;;;2.80;2.60;;;;;;;22.44;45.43;98481.84;5051665;28;20637;-58
2021/09/23 17:21:19;;;;;;;3.00;2.70;;;;;;;22.46;45.47;98481.69;5052937;28;20205;-58
2021/09/23 17:23:47;;;;;;;3.30;2.97;;;;;;;22.54;45.21;98486.91;5053176;28;20538;-58
2021/09/23 17:26:13;;;;;;;4.67;2.77;;;;;;;22.54;45.39;98484.25;5053021;28;20192;-58
2021/09/23 17:28:40;;;;;;;6.63;2.70;;;;;;;22.54;45.43;98487.75;5053112;28;20288;-58
2021/09/23 17:31:07;;;;;;;2.80;2.60;;;;;;;22.55;45.54;98477.91;5051784;28;20247;-58
2021/09/23 17:33:33;;;;;;;4.50;2.97;;;;;;;22.56;45.59;98476.91;5053236;28;20189;-58
2021/09/23 17:36:00;;;;;;;2.97;2.77;;;;;;;22.60;45.41;98491.50;5053266;28;20192;-58
2021/09/23 17:38:27;;;;;;;2.90;2.70;;;;;;;22.59;45.22;98492.47;5052692;28;20221;-58
2021/09/23 17:40:53;;;;;;;2.73;2.53;;;;;;;22.61;45.51;98492.31;5052812;28;20664;-58
2021/09/23 17:43:20;;;;;;;3.17;2.70;;;;;;;22.61;45.55;98487.81;5052917;28;20284;-58
2021/09/23 17:45:47;;;;;;;4.73;2.87;;;;;;;22.64;45.24;98489.28;5053054;28;20270;-58
2021/09/23 17:48:13;;;;;;;2.70;2.50;;;;;;;22.65;45.44;98483.78;5053041;28;20283;-58
2021/09/23 17:50:40;;;;;;;2.70;2.50;;;;;;;22.67;45.26;98484.41;5052857;28;20275;-58
2021/09/23 17:53:07;;;;;;;2.73;2.53;;;;;;;22.65;45.22;98483.78;5049769;28;20203;-59
2021/09/23 17:55:33;;;;;;;2.93;2.73;;;;;;;22.64;45.31;98484.78;5021523;28;20193;-58
2021/09/23 17:58:00;;;;;;;2.73;2.53;;;;;;;22.64;45.28;98489.28;5026841;28;20217;-58
2021/09/23 18:00:27;;;;;;;2.40;2.20;;;;;;;22.66;45.07;98489.91;5048576;22;20227;-81
2021/09/23 18:33:12;;;;;;;2.80;2.60;;;;;;;21.31;48.70;98508.38;5068535;28;21078;-56
2021/09/23 18:35:39;;;;;;;6.63;2.70;;;;;;;21.94;47.22;98514.31;5068527;28;20259;-54
2021/09/23 18:38:05;;;;;;;4.00;2.67;;;;;;;22.20;46.62;98517.53;5069631;28;20304;-57
2021/09/23 18:40:32;;;;;;;2.77;2.57;;;;;;;22.40;46.08;98507.97;5069012;28;20283;-57
2021/09/23 18:42:59;;;;;;;2.60;2.40;;;;;;;22.43;46.37;98511.28;5070153;28;20184;-57
2021/09/23 18:45:27;;;;;;;3.10;2.80;;;;;;;22.46;45.96;98513.59;5070192;28;20184;-56
2021/09/23 18:47:53;;;;;;;2.70;2.50;;;;;;;22.46;46.36;98516.25;5070021;28;20212;-55
2021/09/23 18:50:21;;;;;;;2.30;2.10;;;;;;;22.47;46.05;98525.88;5070695;28;20547;-56
2021/09/23 18:52:48;;;;;;;2.90;2.40;;;;;;;22.50;46.16;98523.69;5070391;28;20209;-56
2021/09/23 18:55:15;;;;;;;2.77;2.40;;;;;;;22.52;46.15;98524.34;5070112;28;20185;-57
2021/09/23 18:57:42;;;;;;;2.50;2.30;;;;;;;22.55;45.92;98533.75;5068802;28;20644;-53
2021/09/23 19:00:10;;;;;;;2.50;2.30;;;;;;;22.64;45.70;98537.16;5068627;28;20191;-57
2021/09/23 19:02:37;;;;;;;3.13;2.57;;;;;;;22.65;45.88;98546.78;5068557;28;20228;-57
2021/09/23 19:05:06;;;;;;;2.50;2.30;;;;;;;22.65;45.72;98547.63;5069737;28;20228;-57
2021/09/23 19:07:33;;;;;;;3.23;2.50;;;;;;;22.58;46.08;98544.03;5069592;28;20271;-57
2021/09/23 19:09:59;;;;;;;2.77;2.33;;;;;;;22.52;46.08;98542.97;5069576;28;20204;-55
2021/09/23 19:12:26;;;;;;;2.60;2.40;;;;;;;22.50;45.95;98546.81;5069445;28;20301;-55
2021/09/23 19:14:55;;;;;;;3.07;2.40;;;;;;;22.24;46.91;98551.56;5069532;28;20647;-56
2021/09/23 19:17:22;;;;;;;2.70;2.50;;;;;;;22.23;46.80;98554.38;5069430;28;20227;-57
2021/09/23 19:19:48;;;;;;;2.53;2.33;;;;;;;22.25;46.96;98547.03;5068210;28;20211;-56
2021/09/23 19:22:15;;;;;;;3.00;2.40;;;;;;;22.27;46.66;98548.53;5069317;28;20188;-53
2021/09/23 19:24:41;;;;;;;3.00;2.50;;;;;;;22.27;46.52;98553.84;5069340;28;20585;-56
2021/09/23 19:27:08;;;;;;;2.23;2.07;;;;;;;22.27;46.77;98555.66;5069262;28;20185;-52
2021/09/23 19:29:36;;;;;;;2.50;2.30;;;;;;;22.33;46.68;98551.44;5069152;28;20251;-57
2021/09/23 19:32:02;;;;;;;2.53;2.33;;;;;;;22.35;46.77;98552.91;5068991;28;20216;-55
2021/09/23 19:34:29;;;;;;;2.50;2.30;;;;;;;22.36;46.56;98551.09;5069353;28;20197;-56
2021/09/23 19:36:56;;;;;;;2.33;2.13;;;;;;;;;;5069056;28;20219;-57
2021/09/23 19:39:22;;;;;;;2.43;2.23;;;;;;;22.27;46.86;98556.50;5068923;28;20201;-56
2021/09/23 19:41:49;;;;;;;2.37;2.17;;;;;;;22.20;47.03;98555.59;5067633;28;20279;-56
2021/09/23 19:44:15;;;;;;;2.47;2.27;;;;;;;22.19;46.74;98555.75;5057383;28;20264;-56
2021/09/23 19:46:42;;;;;;;2.10;2.00;;;;;;;22.25;46.70;98557.69;5055816;28;20585;-53
2021/09/23 19:49:08;;;;;;;2.80;2.60;;;;;;;22.25;46.49;98558.50;5055604;28;20747;-56
2021/09/23 19:51:35;;;;;;;2.47;2.27;;;;;;;22.26;46.70;98564.63;5056120;28;20208;-55
2021/09/23 19:54:02;;;;;;;2.47;2.27;;;;;;;22.25;46.60;98552.34;5055481;28;20268;-55
2021/09/23 19:56:28;;;;;;;2.37;2.17;;;;;;;22.30;46.68;98555.31;5055546;28;20189;-57
2021/09/23 19:58:55;;;;;;;2.27;2.07;;;;;;;22.29;46.57;98561.63;5055389;28;20216;-57
2021/09/23 20:01:21;;;;;;;2.40;2.10;;;;;;;22.27;46.70;98560.97;5055489;28;20185;-57